»·PEaware :: CAX948 KLAR-KLBF

CAX948 :: KLAR-KLBF

FLIGHT INFORMATION

Flight Status: Arrived
Operator:
California Airlines (website)
More flights by this operator :: More flights under this callsign
Pilot: Tony D. (5369)
Aircraft: CIRRUS VISIONJET
(SF50)
More flights by this aircraft type
Origin: KLAR Laramie Regl
United States
Destination: KLBF North Platte Regl-Bird
United States
More flights between these airports :: More routes between these airports
Route: LAR1 LAR V118 CYS V138 SNY V6 LBF
File this flight plan on PilotEdge
Remarks:
Altitude:
(Current/Filed)
21,000ft
Speed:
(Current/Filed)
250kts
Departed: 06-Dec-18 04:12 AM
Arrived: 06-Dec-18 05:16 AM
Distance/Time
Traveled:
225nm/1:03
Distance/Time
To Go:
Arrived

Flight Plot

Page will automatically refresh every two minutes.


Map Options




Map Legend


Flown Route
Filed Route
Departure Airport
Arrival Airport
Navaid (VOR, NDB)
Fix

Horizontal Profiles

Position Reports

Time Latitude Longitude Heading Altitude Ground
Speed
06-Dec-18 04:01 41.319845 -105.669638 271 7270ft 0kts
06-Dec-18 04:02 41.319845 -105.669638 271 7270ft 0kts
06-Dec-18 04:03 41.319845 -105.669638 271 7270ft 0kts
06-Dec-18 04:04 41.319845 -105.669638 271 7270ft 0kts
06-Dec-18 04:05 41.319845 -105.669638 271 7270ft 0kts
06-Dec-18 04:06 41.319845 -105.669638 271 7270ft 0kts
06-Dec-18 04:07 41.319845 -105.669638 271 7270ft 0kts
06-Dec-18 04:08 41.319847 -105.669709 271 7270ft 3kts
06-Dec-18 04:09 41.319229 -105.668890 102 7270ft 9kts
06-Dec-18 04:10 41.318469 -105.666043 227 7270ft 8kts
06-Dec-18 04:11 41.305623 -105.684038 223 7559ft 139kts
06-Dec-18 04:12 41.294148 -105.737320 324 8812ft 199kts
06-Dec-18 04:13 41.331865 -105.702731 92 10097ft 195kts
06-Dec-18 04:14 41.325785 -105.630350 100 11355ft 194kts
06-Dec-18 04:15 41.316644 -105.557991 102 12645ft 199kts
06-Dec-18 04:16 41.306640 -105.482022 102 13939ft 210kts
06-Dec-18 04:17 41.296086 -105.402158 102 15093ft 221kts
06-Dec-18 04:18 41.285148 -105.319742 103 16109ft 231kts
06-Dec-18 04:19 41.273771 -105.234579 103 17104ft 235kts
06-Dec-18 04:20 41.262196 -105.148443 103 18093ft 237kts
06-Dec-18 04:21 41.250354 -105.061497 102 19083ft 237kts
06-Dec-18 04:22 41.238466 -104.974554 100 20078ft 237kts
06-Dec-18 04:23 41.226407 -104.886436 97 21100ft 234kts
06-Dec-18 04:24 41.213981 -104.794597 97 21232ft 270kts
06-Dec-18 04:25 41.206327 -104.690522 91 21215ft 291kts
06-Dec-18 04:26 41.200049 -104.580671 91 21206ft 301kts
06-Dec-18 04:27 41.193532 -104.468845 91 21206ft 305kts
06-Dec-18 04:28 41.186832 -104.355937 91 21214ft 306kts
06-Dec-18 04:29 41.179864 -104.240117 92 21239ft 305kts
06-Dec-18 04:30 41.174678 -104.155057 92 21262ft 305kts
06-Dec-18 04:31 41.167591 -104.040514 91 21266ft 306kts
06-Dec-18 04:32 41.160443 -103.926823 92 21267ft 307kts
06-Dec-18 04:33 41.153311 -103.815190 92 21267ft 307kts
06-Dec-18 04:34 41.145952 -103.701928 91 21268ft 307kts
06-Dec-18 04:35 41.138513 -103.588860 92 21269ft 308kts
06-Dec-18 04:36 41.130926 -103.475585 92 21270ft 308kts
06-Dec-18 04:37 41.123101 -103.360161 92 21278ft 308kts
06-Dec-18 04:38 41.115298 -103.247187 92 21284ft 307kts
06-Dec-18 04:39 41.107355 -103.133379 92 21292ft 308kts
06-Dec-18 04:40 41.099479 -103.022609 92 21292ft 297kts
06-Dec-18 04:41 41.095772 -102.913720 86 21295ft 292kts
06-Dec-18 04:42 41.094433 -102.804342 87 21296ft 291kts
06-Dec-18 04:43 41.092883 -102.691995 86 21297ft 291kts
06-Dec-18 04:44 41.091229 -102.581006 86 21300ft 291kts
06-Dec-18 04:45 41.089522 -102.471135 86 21303ft 292kts
06-Dec-18 04:46 41.087679 -102.361165 87 21317ft 292kts
06-Dec-18 04:47 41.085749 -102.252957 87 21323ft 291kts
06-Dec-18 04:48 41.083760 -102.145714 87 21328ft 291kts
06-Dec-18 04:49 41.081678 -102.038272 87 21330ft 291kts
06-Dec-18 04:50 41.074016 -101.930535 95 21311ft 290kts
06-Dec-18 04:51 41.063445 -101.826115 95 20048ft 274kts
06-Dec-18 04:52 41.053439 -101.727159 95 18811ft 266kts
06-Dec-18 04:53 41.043550 -101.630627 95 17576ft 259kts
06-Dec-18 04:54 41.033849 -101.536458 95 16348ft 254kts
06-Dec-18 04:55 41.024194 -101.443585 96 15115ft 249kts
06-Dec-18 04:56 41.014655 -101.352487 96 13882ft 244kts
06-Dec-18 04:57 41.005307 -101.264165 97 12630ft 240kts
06-Dec-18 04:58 40.995931 -101.176233 97 11358ft 235kts
06-Dec-18 04:59 40.986812 -101.091331 96 10110ft 230kts
06-Dec-18 05:00 40.977870 -101.008303 96 8872ft 227kts
06-Dec-18 05:01 40.968983 -100.926620 95 7624ft 214kts
06-Dec-18 05:02 40.960861 -100.852316 95 6446ft 194kts
06-Dec-18 05:03 40.953499 -100.785344 94 5635ft 176kts
06-Dec-18 05:04 40.946446 -100.721444 94 5003ft 169kts
06-Dec-18 05:05 40.932623 -100.662449 156 5015ft 182kts
06-Dec-18 05:06 40.883562 -100.662583 188 5007ft 175kts
06-Dec-18 05:07 40.857666 -100.695150 311 5017ft 159kts
06-Dec-18 05:08 40.901175 -100.700950 358 5009ft 162kts
06-Dec-18 05:09 40.943978 -100.698006 4 5004ft 160kts
06-Dec-18 05:10 40.985895 -100.696592 358 4987ft 133kts
06-Dec-18 05:11 41.022204 -100.695711 358 4775ft 129kts
06-Dec-18 05:12 41.054834 -100.694865 358 4092ft 110kts
06-Dec-18 05:13 41.084776 -100.694104 359 3520ft 106kts
06-Dec-18 05:14 41.109961 -100.693604 4 2994ft 79kts
06-Dec-18 05:15 41.126375 -100.692990 0 2773ft 24kts
06-Dec-18 05:16 41.131107 -100.693911 270 2777ft 11kts
06-Dec-18 05:17 41.131890 -100.695763 275 2778ft 0kts

Navigation Log

Ident Type
Flight plan parsing failed, navigation log unavailable